createdAt,value
2023-02-17T00:02:00.844Z,4.20
2023-02-17T00:04:48.185Z,4.16
2023-02-17T00:07:36.227Z,4.16
2023-02-17T00:10:23.660Z,4.17
2023-02-17T00:13:12.226Z,4.18
2023-02-17T00:15:59.563Z,4.16
2023-02-17T00:18:47.594Z,4.17
2023-02-17T00:21:35.042Z,4.18
2023-02-17T00:24:22.792Z,4.19
2023-02-17T00:27:11.370Z,4.21
2023-02-17T00:30:00.322Z,4.28
2023-02-17T00:32:48.245Z,4.40
2023-02-17T00:35:40.537Z,4.52
2023-02-17T00:38:29.825Z,4.71
2023-02-17T00:41:17.854Z,5.12
2023-02-17T00:44:05.879Z,5.20
2023-02-17T00:46:55.076Z,5.40
2023-02-17T00:49:42.670Z,5.43
2023-02-17T00:52:30.125Z,5.49
2023-02-17T00:55:17.670Z,5.43
2023-02-17T00:58:05.714Z,5.51
2023-02-17T01:00:53.057Z,5.43
2023-02-17T01:03:42.584Z,5.36
2023-02-17T01:06:33.933Z,5.30
2023-02-17T01:09:21.566Z,5.24
2023-02-17T01:12:09.070Z,5.19
2023-02-17T01:14:56.588Z,5.13
2023-02-17T01:17:43.907Z,5.11
2023-02-17T01:20:35.919Z,5.07
2023-02-17T01:23:23.593Z,5.09
2023-02-17T01:26:15.674Z,5.07
2023-02-17T01:29:05.180Z,5.06
2023-02-17T01:31:53.501Z,5.03
2023-02-17T01:34:40.870Z,5.02
2023-02-17T01:37:29.772Z,4.99
2023-02-17T01:40:21.437Z,5.00
2023-02-17T01:43:17.307Z,5.01
2023-02-17T01:46:07.386Z,4.99
2023-02-17T01:48:55.364Z,4.98
2023-02-17T01:51:43.651Z,5.00
2023-02-17T01:54:41.896Z,4.99
2023-02-17T01:57:36.471Z,5.00
2023-02-17T02:00:27.362Z,5.01
2023-02-17T02:03:16.486Z,5.04
2023-02-17T02:06:12.460Z,5.05
2023-02-17T02:09:06.951Z,5.15
2023-02-17T02:11:56.457Z,5.17
2023-02-17T02:14:44.119Z,5.16
2023-02-17T02:17:46.821Z,5.18
2023-02-17T02:21:04.758Z,5.17
2023-02-17T02:24:18.760Z,5.13
2023-02-17T02:27:57.302Z,5.14
2023-02-17T02:31:12.007Z,5.13
2023-02-17T02:34:08.439Z,5.09
2023-02-17T02:37:05.550Z,5.07
2023-02-17T02:39:56.267Z,5.09
2023-02-17T02:42:45.617Z,5.08
2023-02-17T02:45:34.863Z,5.12
2023-02-17T02:48:22.588Z,5.16
2023-02-17T02:51:42.784Z,5.15
2023-02-17T02:54:48.428Z,5.15
2023-02-17T02:57:50.057Z,5.16
2023-02-17T03:00:54.077Z,5.17
2023-02-17T03:03:49.790Z,5.16
2023-02-17T03:06:47.640Z,5.15
2023-02-17T03:09:36.097Z,5.16
2023-02-17T03:12:27.881Z,5.13
2023-02-17T03:15:23.601Z,5.19
2023-02-17T03:18:11.383Z,5.17
2023-02-17T03:21:08.028Z,5.13
2023-02-17T03:23:56.862Z,5.12
2023-02-17T03:26:44.397Z,5.15
2023-02-17T03:29:31.967Z,5.17
2023-02-17T03:32:20.189Z,5.18
2023-02-17T03:35:07.815Z,5.20
2023-02-17T03:37:55.142Z,5.20
2023-02-17T03:40:43.935Z,5.22
2023-02-17T03:43:31.224Z,5.23
2023-02-17T03:46:19.789Z,5.27
2023-02-17T03:49:07.615Z,5.23
2023-02-17T03:51:55.146Z,5.26
2023-02-17T03:54:42.628Z,5.25
2023-02-17T03:57:31.897Z,5.31
2023-02-17T04:00:20.220Z,5.28
2023-02-17T04:03:07.645Z,5.31
2023-02-17T04:05:55.461Z,5.30
2023-02-17T04:08:43.321Z,5.29
2023-02-17T04:11:31.168Z,5.33
2023-02-17T04:14:20.130Z,5.38
2023-02-17T04:17:07.802Z,5.39
2023-02-17T04:19:55.294Z,5.39
2023-02-17T04:22:42.714Z,5.40
2023-02-17T04:25:30.034Z,5.39
2023-02-17T04:28:19.193Z,5.35
2023-02-17T04:31:09.177Z,5.39
2023-02-17T04:33:56.763Z,5.68
2023-02-17T04:36:44.429Z,5.77
2023-02-17T04:39:32.015Z,5.94
2023-02-17T04:42:19.477Z,6.30
2023-02-17T04:45:08.358Z,6.30
2023-02-17T04:47:57.100Z,6.43
2023-02-17T04:50:44.432Z,6.50
2023-02-17T04:53:31.888Z,6.52
2023-02-17T04:56:19.506Z,6.48
2023-02-17T04:59:06.828Z,6.42
2023-02-17T05:01:54.246Z,6.39
2023-02-17T05:04:45.668Z,6.31
2023-02-17T05:07:34.775Z,6.28
2023-02-17T05:10:23.985Z,6.24
2023-02-17T05:13:12.091Z,6.21
2023-02-17T05:15:59.900Z,6.21
2023-02-17T05:18:47.669Z,6.20
2023-02-17T05:21:36.474Z,6.18
2023-02-17T05:24:24.347Z,6.14
2023-02-17T05:27:12.424Z,6.26
2023-02-17T05:30:00.320Z,6.27
2023-02-17T05:32:48.186Z,6.36
2023-02-17T05:35:36.241Z,6.47
2023-02-17T05:38:25.034Z,6.54
2023-02-17T05:41:12.602Z,6.80
2023-02-17T05:44:00.086Z,6.59
2023-02-17T05:46:47.686Z,6.55
2023-02-17T05:49:35.084Z,6.86
2023-02-17T05:52:22.545Z,6.94
2023-02-17T05:55:11.524Z,7.12
2023-02-17T05:57:59.258Z,6.93
2023-02-17T06:00:47.214Z,7.11
2023-02-17T06:03:34.817Z,7.00
2023-02-17T06:06:22.855Z,6.96
2023-02-17T06:09:10.735Z,7.03
2023-02-17T06:11:59.886Z,7.20
2023-02-17T06:14:47.520Z,7.08
2023-02-17T06:17:35.254Z,7.25
2023-02-17T06:20:23.180Z,7.29
2023-02-17T06:23:11.532Z,7.30
2023-02-17T06:25:59.076Z,7.33
2023-02-17T06:28:50.569Z,7.36
2023-02-17T06:31:38.417Z,7.37
2023-02-17T06:34:29.297Z,7.51
2023-02-17T06:37:16.828Z,7.46
2023-02-17T06:40:04.711Z,7.58
2023-02-17T06:42:52.387Z,7.55
2023-02-17T06:45:41.308Z,7.60
2023-02-17T06:48:28.947Z,7.68
2023-02-17T06:51:16.452Z,7.86
2023-02-17T06:54:03.845Z,7.99
2023-02-17T06:56:51.586Z,7.87
2023-02-17T06:59:38.978Z,7.82
2023-02-17T07:02:28.572Z,7.85
2023-02-17T07:05:16.150Z,8.08
2023-02-17T07:08:04.195Z,7.90
2023-02-17T07:10:51.780Z,7.94
2023-02-17T07:13:39.621Z,8.21
2023-02-17T07:16:27.307Z,7.98
2023-02-17T07:19:16.487Z,8.01
2023-02-17T07:22:03.833Z,8.06
2023-02-17T07:24:51.197Z,8.13
2023-02-17T07:27:39.293Z,8.15
2023-02-17T07:30:26.908Z,8.17
2023-02-17T07:33:14.565Z,8.15
2023-02-17T07:36:08.305Z,8.20
2023-02-17T07:38:56.634Z,8.20
2023-02-17T07:41:44.409Z,8.22
2023-02-17T07:44:31.843Z,8.25
2023-02-17T07:47:19.680Z,8.24
2023-02-17T07:50:09.862Z,8.45
2023-02-17T07:52:59.069Z,8.29
2023-02-17T07:55:46.661Z,8.28
2023-02-17T07:58:35.029Z,8.36
2023-02-17T08:01:25.059Z,8.41
2023-02-17T08:04:12.638Z,8.48
2023-02-17T08:07:00.565Z,8.45
2023-02-17T08:10:06.836Z,8.51
2023-02-17T08:13:11.870Z,8.47
2023-02-17T08:15:59.641Z,8.52
2023-02-17T08:18:47.124Z,8.71
2023-02-17T08:21:35.614Z,8.67
2023-02-17T08:24:24.684Z,8.64
2023-02-17T08:27:39.617Z,8.71
2023-02-17T08:30:27.570Z,8.65
2023-02-17T08:33:17.981Z,8.70
2023-02-17T08:36:08.736Z,8.65
2023-02-17T08:38:57.040Z,8.67
2023-02-17T08:41:45.615Z,8.67
2023-02-17T08:44:37.410Z,8.69
2023-02-17T08:47:25.011Z,8.71
2023-02-17T08:50:17.108Z,8.71
2023-02-17T08:53:04.793Z,8.73
2023-02-17T08:55:52.788Z,8.75
2023-02-17T08:58:40.166Z,8.80
2023-02-17T09:01:29.181Z,8.82
2023-02-17T09:04:17.503Z,8.88
2023-02-17T09:07:05.335Z,8.86
2023-02-17T09:09:52.793Z,8.97
2023-02-17T09:12:40.391Z,8.94
2023-02-17T09:15:27.923Z,8.99
2023-02-17T09:18:17.466Z,9.01
2023-02-17T09:21:08.775Z,9.02
2023-02-17T09:23:56.592Z,9.04
2023-02-17T09:26:44.091Z,9.07
2023-02-17T09:29:31.899Z,9.11
2023-02-17T09:32:19.376Z,9.12
2023-02-17T09:35:09.432Z,9.14
2023-02-17T09:37:56.890Z,9.18
2023-02-17T09:40:49.082Z,9.18
2023-02-17T09:43:37.181Z,9.18
2023-02-17T09:46:33.131Z,9.21
2023-02-17T09:49:27.043Z,9.28
2023-02-17T09:52:27.194Z,9.27
2023-02-17T09:55:21.464Z,9.32
2023-02-17T09:58:17.163Z,9.33
2023-02-17T10:01:12.285Z,9.36
2023-02-17T10:04:09.503Z,9.40
2023-02-17T10:07:07.195Z,9.48
2023-02-17T10:10:07.086Z,9.48
2023-02-17T10:12:59.102Z,9.49
2023-02-17T10:15:53.005Z,9.58
2023-02-17T10:18:49.819Z,9.67
2023-02-17T10:21:43.797Z,9.68
2023-02-17T10:24:31.494Z,9.77
2023-02-17T10:27:38.724Z,9.81
2023-02-17T10:30:38.602Z,9.86
2023-02-17T10:33:36.359Z,9.95
2023-02-17T10:36:31.912Z,10.03
2023-02-17T10:39:47.955Z,10.12
2023-02-17T10:42:40.095Z,10.13
2023-02-17T10:45:33.301Z,10.28
2023-02-17T10:48:25.515Z,10.34
2023-02-17T10:51:18.605Z,10.38
2023-02-17T10:54:17.476Z,10.44
2023-02-17T10:57:12.143Z,10.46
2023-02-17T11:00:00.936Z,10.54
2023-02-17T11:02:51.631Z,10.58
2023-02-17T11:05:39.442Z,10.63
2023-02-17T11:08:36.410Z,10.69
2023-02-17T11:11:27.790Z,10.72
2023-02-17T11:14:25.910Z,10.77
2023-02-17T11:17:24.574Z,10.80
2023-02-17T11:20:34.206Z,10.81
2023-02-17T11:23:25.586Z,10.85
2023-02-17T11:26:24.060Z,10.87
2023-02-17T11:29:17.623Z,10.88
2023-02-17T11:32:08.993Z,10.86
2023-02-17T11:35:05.911Z,10.86
2023-02-17T11:38:01.709Z,10.85
2023-02-17T11:41:01.879Z,10.81
2023-02-17T11:43:55.432Z,10.82
2023-02-17T11:46:56.187Z,10.77
2023-02-17T11:50:26.098Z,10.73
2023-02-17T11:53:43.669Z,10.77
2023-02-17T11:56:37.126Z,10.78
2023-02-17T11:59:46.137Z,10.74
2023-02-17T12:03:21.919Z,10.78
2023-02-17T12:06:22.010Z,10.77
2023-02-17T12:09:24.520Z,10.77
2023-02-17T12:12:22.500Z,10.78
2023-02-17T12:15:39.262Z,10.79
2023-02-17T12:18:54.835Z,10.78
2023-02-17T12:22:08.479Z,10.81
2023-02-17T12:25:26.751Z,10.82
2023-02-17T12:28:42.917Z,10.85
2023-02-17T12:32:03.222Z,10.84
2023-02-17T12:34:58.982Z,10.85
2023-02-17T12:37:56.131Z,10.87
2023-02-17T12:40:51.619Z,10.87
2023-02-17T12:43:48.054Z,10.87
2023-02-17T12:46:44.144Z,10.90
2023-02-17T12:49:38.490Z,10.92
2023-02-17T12:52:31.901Z,10.95
2023-02-17T12:55:28.566Z,11.02
2023-02-17T12:58:22.634Z,11.01
2023-02-17T13:01:16.904Z,11.06
2023-02-17T13:04:05.164Z,11.09
2023-02-17T13:07:11.645Z,11.13
2023-02-17T13:09:59.518Z,11.15
2023-02-17T13:13:00.347Z,11.17
2023-02-17T13:15:48.177Z,11.20
2023-02-17T13:18:38.914Z,11.25
2023-02-17T13:21:34.389Z,11.21
2023-02-17T13:24:35.364Z,11.26
2023-02-17T13:27:33.680Z,11.29
2023-02-17T13:30:39.732Z,11.31
2023-02-17T13:33:32.522Z,11.33
2023-02-17T13:36:36.381Z,11.35
2023-02-17T13:39:39.162Z,11.36
2023-02-17T13:42:49.691Z,11.40
2023-02-17T13:45:45.645Z,11.43
2023-02-17T13:48:36.279Z,11.45
2023-02-17T13:51:28.832Z,11.49
2023-02-17T13:54:22.353Z,11.51
2023-02-17T13:57:25.705Z,11.53
2023-02-17T14:00:24.826Z,11.54
2023-02-17T14:03:22.819Z,11.51
2023-02-17T14:06:23.073Z,11.51
2023-02-17T14:09:22.007Z,11.51
2023-02-17T14:12:24.481Z,11.55
2023-02-17T14:15:18.140Z,11.55
2023-02-17T14:18:16.701Z,11.57
2023-02-17T14:21:09.742Z,11.60
2023-02-17T14:23:59.824Z,11.61
2023-02-17T14:26:50.611Z,11.65
2023-02-17T14:29:44.567Z,11.67
2023-02-17T14:32:35.248Z,11.73
2023-02-17T14:35:25.310Z,11.77
2023-02-17T14:38:27.655Z,11.82
2023-02-17T14:41:14.999Z,11.87
2023-02-17T14:44:02.946Z,11.89
2023-02-17T14:46:50.260Z,11.92
2023-02-17T14:49:38.193Z,11.93
2023-02-17T14:52:27.320Z,11.99
2023-02-17T14:55:26.824Z,12.04
2023-02-17T14:58:21.439Z,12.10
2023-02-17T15:01:11.161Z,12.19
2023-02-17T15:03:59.058Z,12.26
2023-02-17T15:06:51.611Z,12.28
2023-02-17T15:09:41.494Z,12.33
2023-02-17T15:12:29.158Z,12.34
2023-02-17T15:15:18.922Z,12.33
2023-02-17T15:18:06.828Z,12.32
2023-02-17T15:20:54.631Z,12.36
2023-02-17T15:23:42.847Z,12.37
2023-02-17T15:26:32.087Z,12.29
2023-02-17T15:29:22.348Z,12.33
2023-02-17T15:32:19.021Z,12.27
2023-02-17T15:35:18.463Z,12.24
2023-02-17T15:38:05.841Z,12.23
2023-02-17T15:40:56.688Z,12.24
2023-02-17T15:43:48.956Z,12.18
2023-02-17T15:46:37.006Z,12.14
2023-02-17T15:49:24.720Z,12.14
2023-02-17T15:52:14.322Z,12.10
2023-02-17T15:55:01.686Z,12.05
2023-02-17T15:57:54.019Z,12.01
2023-02-17T16:00:45.895Z,11.96
2023-02-17T16:03:33.626Z,11.92
2023-02-17T16:06:21.502Z,11.90
2023-02-17T16:09:10.674Z,11.91
2023-02-17T16:12:00.968Z,11.85
2023-02-17T16:14:48.586Z,11.81
2023-02-17T16:17:37.362Z,11.83
2023-02-17T16:20:28.028Z,11.79
2023-02-17T16:23:15.437Z,11.76
2023-02-17T16:26:03.710Z,11.77
2023-02-17T16:28:51.450Z,11.73
2023-02-17T16:31:39.006Z,11.73
2023-02-17T16:34:32.207Z,11.71
2023-02-17T16:37:19.997Z,11.69
2023-02-17T16:40:16.603Z,11.65
2023-02-17T16:43:05.384Z,11.65
2023-02-17T16:45:57.716Z,11.63
2023-02-17T16:48:45.157Z,11.61
2023-02-17T16:51:33.980Z,11.61
2023-02-17T16:54:21.650Z,11.58
2023-02-17T16:57:19.187Z,11.56
2023-02-17T17:00:09.175Z,11.56
2023-02-17T17:02:57.903Z,11.55
2023-02-17T17:05:45.691Z,11.54
2023-02-17T17:08:35.684Z,11.51
2023-02-17T17:11:26.080Z,11.50
2023-02-17T17:14:14.171Z,11.48
2023-02-17T17:17:03.458Z,11.47
2023-02-17T17:19:50.905Z,11.49
2023-02-17T17:22:38.763Z,11.48
2023-02-17T17:25:29.077Z,11.43
2023-02-17T17:28:18.885Z,11.44
2023-02-17T17:31:06.505Z,11.42
2023-02-17T17:33:55.011Z,11.41
2023-02-17T17:36:45.980Z,11.39
2023-02-17T17:39:33.671Z,11.38
2023-02-17T17:42:22.526Z,11.38
2023-02-17T17:45:10.935Z,11.35
2023-02-17T17:47:58.330Z,11.34
2023-02-17T17:50:49.904Z,11.33
2023-02-17T17:53:37.562Z,11.31
2023-02-17T17:56:28.352Z,11.31
2023-02-17T17:59:17.170Z,11.32
2023-02-17T18:02:05.181Z,11.31
2023-02-17T18:04:53.032Z,11.31
2023-02-17T18:07:43.212Z,11.29
2023-02-17T18:10:32.261Z,11.29
2023-02-17T18:13:20.141Z,11.27
2023-02-17T18:16:09.693Z,11.26
2023-02-17T18:19:00.960Z,11.25
2023-02-17T18:21:48.580Z,11.23
2023-02-17T18:24:35.934Z,11.22
2023-02-17T18:27:23.790Z,11.23
2023-02-17T18:30:14.394Z,11.22
2023-02-17T18:33:03.820Z,11.21
2023-02-17T18:35:51.868Z,11.19
2023-02-17T18:38:40.177Z,11.19
2023-02-17T18:41:31.592Z,11.18
2023-02-17T18:44:19.282Z,11.18
2023-02-17T18:47:07.026Z,11.17
2023-02-17T18:49:55.871Z,11.17
2023-02-17T18:52:45.131Z,11.16
2023-02-17T18:55:32.778Z,11.14
2023-02-17T18:58:21.077Z,11.13
2023-02-17T19:01:16.211Z,11.12
2023-02-17T19:04:04.914Z,11.11
2023-02-17T19:06:53.887Z,11.10
2023-02-17T19:09:43.561Z,11.08
2023-02-17T19:12:31.030Z,11.09
2023-02-17T19:15:20.975Z,11.08
2023-02-17T19:18:08.648Z,11.06
2023-02-17T19:20:56.139Z,11.02
2023-02-17T19:23:45.907Z,11.01
2023-02-17T19:26:34.146Z,11.02
2023-02-17T19:29:22.915Z,11.02
2023-02-17T19:32:10.896Z,11.05
2023-02-17T19:34:58.402Z,11.04
2023-02-17T19:37:45.981Z,11.05
2023-02-17T19:40:36.270Z,10.99
2023-02-17T19:43:24.044Z,10.98
2023-02-17T19:46:14.200Z,10.98
2023-02-17T19:49:02.050Z,11.00
2023-02-17T19:51:50.025Z,11.01
2023-02-17T19:54:38.234Z,10.99
2023-02-17T19:57:27.487Z,10.99
2023-02-17T20:00:16.244Z,10.99
2023-02-17T20:03:03.738Z,10.99
2023-02-17T20:05:51.518Z,10.98
2023-02-17T20:08:39.358Z,11.01
2023-02-17T20:11:28.162Z,10.98
2023-02-17T20:14:17.568Z,10.95
2023-02-17T20:17:05.471Z,10.97
2023-02-17T20:19:53.116Z,10.99
2023-02-17T20:22:40.708Z,10.95
2023-02-17T20:25:28.317Z,10.98
2023-02-17T20:28:15.910Z,10.95
2023-02-17T20:31:06.691Z,10.96
2023-02-17T20:33:54.762Z,10.97
2023-02-17T20:36:42.655Z,10.95
2023-02-17T20:39:30.299Z,10.99
2023-02-17T20:42:17.835Z,10.98
2023-02-17T20:45:05.749Z,10.95
2023-02-17T20:47:54.758Z,10.95
2023-02-17T20:50:43.825Z,10.93
2023-02-17T20:53:31.398Z,10.94
2023-02-17T20:56:22.773Z,10.89
2023-02-17T20:59:13.249Z,10.89
2023-02-17T21:02:00.953Z,10.91
2023-02-17T21:04:49.802Z,10.90
2023-02-17T21:07:37.793Z,10.91
2023-02-17T21:10:28.026Z,10.92
2023-02-17T21:13:15.624Z,10.92
2023-02-17T21:16:03.282Z,10.93
2023-02-17T21:18:51.064Z,10.91
2023-02-17T21:21:41.037Z,10.86
2023-02-17T21:24:28.592Z,10.92
2023-02-17T21:27:16.182Z,10.89
2023-02-17T21:30:04.229Z,10.86
2023-02-17T21:32:51.682Z,10.89
2023-02-17T21:35:39.114Z,10.87
2023-02-17T21:38:27.905Z,10.87
2023-02-17T21:41:19.933Z,10.87
2023-02-17T21:44:25.378Z,10.90
2023-02-17T21:47:12.960Z,10.88
2023-02-17T21:50:00.637Z,10.85
2023-02-17T21:52:48.083Z,10.85
2023-02-17T21:55:36.834Z,10.84
2023-02-17T21:58:24.298Z,10.85
2023-02-17T22:01:11.741Z,10.84
2023-02-17T22:03:59.393Z,10.85
2023-02-17T22:06:47.292Z,10.85
2023-02-17T22:09:34.799Z,10.84
2023-02-17T22:12:23.467Z,10.83
2023-02-17T22:15:11.991Z,10.82
2023-02-17T22:17:59.851Z,10.81
2023-02-17T22:20:47.320Z,10.82
2023-02-17T22:23:35.122Z,10.79
2023-02-17T22:26:25.561Z,10.79
2023-02-17T22:29:14.663Z,10.76
2023-02-17T22:32:02.733Z,10.76
2023-02-17T22:34:50.600Z,10.78
2023-02-17T22:37:38.757Z,10.77
2023-02-17T22:40:27.011Z,10.76
2023-02-17T22:43:14.726Z,10.76
2023-02-17T22:46:04.034Z,10.75
2023-02-17T22:48:53.130Z,10.76
2023-02-17T22:51:41.654Z,10.72
2023-02-17T22:54:29.139Z,10.74
2023-02-17T22:57:16.635Z,10.72
2023-02-17T23:00:04.153Z,10.72
2023-02-17T23:02:52.935Z,10.73
2023-02-17T23:05:42.212Z,10.70
2023-02-17T23:08:30.438Z,10.72
2023-02-17T23:11:42.429Z,10.72
2023-02-17T23:14:34.810Z,10.71
2023-02-17T23:17:22.130Z,10.72
2023-02-17T23:20:12.437Z,10.73
2023-02-17T23:23:00.661Z,10.71
2023-02-17T23:25:51.958Z,10.71
2023-02-17T23:28:39.649Z,10.70
2023-02-17T23:31:27.348Z,10.70
2023-02-17T23:34:16.715Z,10.66
2023-02-17T23:37:05.647Z,10.67
2023-02-17T23:39:52.885Z,10.67
2023-02-17T23:42:40.308Z,10.67
2023-02-17T23:45:27.736Z,10.68
2023-02-17T23:48:15.336Z,10.67
2023-02-17T23:51:05.826Z,10.67
2023-02-17T23:53:54.923Z,10.67
2023-02-17T23:56:43.196Z,10.66
2023-02-17T23:59:30.920Z,10.63
